Time;durP1;ratioP1;P1;durP2;ratioP2;P2;SDS_P1;SDS_P2;PMS_P1;PMS_P2;Temp;Humidity;BMP_temperature;BMP_pressure;BME280_temperature;BME280_humidity;BME280_pressure;Samples;Min_cycle;Max_cycle;Signal;HPM_P1;HPM_P2
2021/10/06 00:00:32;;;;;;;1.20;1.00;;;12.90;98.00;;;;;;5051723;28;20513;-70
2021/10/06 00:02:59;;;;;;;1.90;1.30;;;12.80;98.00;;;;;;5051641;28;20464;-69
2021/10/06 00:05:26;;;;;;;1.20;1.00;;;12.70;98.00;;;;;;5051463;28;20519;-69
2021/10/06 00:07:53;;;;;;;1.20;1.03;;;12.60;98.00;;;;;;5051360;28;20819;-69
2021/10/06 00:10:20;;;;;;;1.30;1.20;;;12.60;98.00;;;;;;5051350;28;21099;-69
2021/10/06 00:12:48;;;;;;;1.20;1.00;;;12.60;98.00;;;;;;5051386;28;20495;-69
2021/10/06 00:15:16;;;;;;;1.20;1.00;;;12.60;98.00;;;;;;5051169;28;20519;-70
2021/10/06 00:17:43;;;;;;;1.20;1.10;;;12.70;98.00;;;;;;5051207;28;20888;-70
2021/10/06 00:20:13;;;;;;;1.40;1.10;;;12.70;98.00;;;;;;5051100;28;20452;-69
2021/10/06 00:22:40;;;;;;;1.20;1.00;;;12.70;98.00;;;;;;5051278;28;20457;-69
2021/10/06 00:25:08;;;;;;;1.20;1.00;;;12.80;98.00;;;;;;5050877;28;20518;-68
2021/10/06 00:27:35;;;;;;;1.20;1.10;;;12.80;98.00;;;;;;5033741;28;20463;-70
2021/10/06 00:30:04;;;;;;;1.20;1.10;;;12.90;98.00;;;;;;5051156;28;20488;-69
2021/10/06 00:32:32;;;;;;;1.20;1.10;;;12.90;98.00;;;;;;5051056;28;20879;-69
2021/10/06 00:34:58;;;;;;;1.43;1.30;;;12.90;98.00;;;;;;5050842;28;20480;-70
2021/10/06 00:37:26;;;;;;;1.20;1.10;;;12.80;98.00;;;;;;5051032;28;20495;-68
2021/10/06 00:39:52;;;;;;;1.20;1.10;;;12.80;98.00;;;;;;5050975;28;20491;-69
2021/10/06 00:42:19;;;;;;;1.20;1.00;;;12.90;98.00;;;;;;5050806;28;20532;-69
2021/10/06 00:44:46;;;;;;;1.20;1.00;;;12.90;98.00;;;;;;5050890;28;20489;-69
2021/10/06 00:47:15;;;;;;;1.20;1.10;;;12.90;98.00;;;;;;5050954;28;20877;-69
2021/10/06 00:49:42;;;;;;;1.20;1.00;;;12.90;98.00;;;;;;5050872;28;20485;-69
2021/10/06 00:52:12;;;;;;;1.20;1.00;;;12.90;98.00;;;;;;5050734;28;20490;-68
2021/10/06 00:54:39;;;;;;;1.20;1.00;;;12.90;98.00;;;;;;5050799;28;20464;-69
2021/10/06 00:57:06;;;;;;;1.57;1.10;;;12.90;98.00;;;;;;5051126;28;20479;-69
2021/10/06 00:59:33;;;;;;;1.20;1.10;;;13.00;98.00;;;;;;5050785;28;20462;-69
2021/10/06 01:02:00;;;;;;;1.20;1.00;;;13.00;98.00;;;;;;5050660;28;20841;-70
2021/10/06 01:04:35;;;;;;;1.50;1.10;;;13.10;98.00;;;;;;5052625;28;20566;-69
2021/10/06 01:07:02;;;;;;;1.20;1.00;;;13.10;98.00;;;;;;5053988;28;20961;-69
2021/10/06 01:09:31;;;;;;;1.20;1.10;;;13.00;98.00;;;;;;5053978;28;20782;-68
2021/10/06 01:11:59;;;;;;;1.20;1.00;;;13.00;98.00;;;;;;5053923;28;20496;-69
2021/10/06 01:14:26;;;;;;;1.20;1.00;;;13.10;98.00;;;;;;5054115;28;20495;-69
2021/10/06 01:16:54;;;;;;;1.20;1.00;;;13.00;98.00;;;;;;5054261;28;20979;-69
2021/10/06 01:19:23;;;;;;;1.73;1.20;;;13.00;98.00;;;;;;5054292;28;20484;-69
2021/10/06 01:21:53;;;;;;;1.20;1.10;;;12.80;98.00;;;;;;5054602;28;20500;-70
2021/10/06 01:24:20;;;;;;;1.20;1.00;;;12.80;98.00;;;;;;5036885;28;20487;-69
2021/10/06 01:26:47;;;;;;;1.30;1.23;;;12.80;98.00;;;;;;5054277;28;20884;-69
2021/10/06 01:29:15;;;;;;;1.33;1.03;;;12.80;98.00;;;;;;5036098;28;20813;-70
2021/10/06 01:31:43;;;;;;;1.20;1.10;;;12.90;98.00;;;;;;5053746;28;20467;-70
2021/10/06 01:34:10;;;;;;;1.20;1.00;;;12.80;98.00;;;;;;5053973;28;20821;-69
2021/10/06 01:36:38;;;;;;;1.20;1.20;;;12.70;98.00;;;;;;5053817;28;20552;-69
2021/10/06 01:39:08;;;;;;;1.20;1.00;;;12.60;98.00;;;;;;5053608;28;20470;-69
2021/10/06 01:41:35;;;;;;;1.27;1.10;;;12.50;98.00;;;;;;5053821;28;20486;-69
2021/10/06 01:44:03;;;;;;;1.20;1.00;;;12.60;98.00;;;;;;5053780;28;20460;-69
2021/10/06 01:46:30;;;;;;;1.20;1.00;;;12.60;98.00;;;;;;5053461;28;21018;-68
2021/10/06 01:48:58;;;;;;;1.20;1.00;;;12.60;98.00;;;;;;5053439;28;20499;-68
2021/10/06 01:51:25;;;;;;;1.20;1.00;;;12.80;98.00;;;;;;5053543;28;20456;-69
2021/10/06 01:53:52;;;;;;;1.20;1.00;;;12.70;98.00;;;;;;5053566;28;20524;-69
2021/10/06 01:56:21;;;;;;;1.20;1.00;;;12.70;98.00;;;;;;5035596;28;20460;-70
2021/10/06 01:58:53;;;;;;;1.57;1.00;;;12.80;98.00;;;;;;5053421;28;20520;-69
2021/10/06 02:01:20;;;;;;;1.20;1.00;;;12.80;98.00;;;;;;5053344;28;20523;-70
2021/10/06 02:03:47;;;;;;;1.20;1.07;;;12.80;98.00;;;;;;5053495;28;20796;-69
2021/10/06 02:06:14;;;;;;;1.30;1.10;;;12.80;98.00;;;;;;5053184;28;20524;-68
2021/10/06 02:08:41;;;;;;;1.20;1.00;;;12.80;98.00;;;;;;5053358;28;20928;-69
2021/10/06 02:11:08;;;;;;;1.80;1.13;;;12.80;98.00;;;;;;5053263;28;20496;-69
2021/10/06 02:13:36;;;;;;;1.20;1.00;;;12.90;98.00;;;;;;5053060;28;20487;-68
2021/10/06 02:16:03;;;;;;;1.20;1.00;;;12.90;98.00;;;;;;5052417;28;20544;-69
2021/10/06 02:18:30;;;;;;;1.20;1.00;;;12.90;98.00;;;;;;5053110;28;20485;-69
2021/10/06 02:20:58;;;;;;;1.20;1.00;;;12.90;98.00;;;;;;5053059;28;20464;-69
2021/10/06 02:23:25;;;;;;;1.20;1.10;;;12.80;98.00;;;;;;5053162;28;20465;-69
2021/10/06 02:25:52;;;;;;;1.20;1.10;;;12.80;98.00;;;;;;5052767;28;20486;-69
2021/10/06 02:28:19;;;;;;;1.20;1.00;;;12.80;98.00;;;;;;5052840;28;20542;-69
2021/10/06 02:30:53;;;;;;;1.20;1.00;;;12.70;98.00;;;;;;5052845;28;20893;-70
2021/10/06 02:33:21;;;;;;;1.30;1.30;;;12.80;98.00;;;;;;5052828;28;20518;-69
2021/10/06 02:35:48;;;;;;;1.20;1.00;;;12.80;98.00;;;;;;5052902;28;20490;-68
2021/10/06 02:38:14;;;;;;;1.20;1.03;;;12.80;98.00;;;;;;5052785;28;20513;-69
2021/10/06 02:40:41;;;;;;;1.40;1.10;;;12.80;98.00;;;;;;5052832;28;20843;-69
2021/10/06 02:43:08;;;;;;;1.20;1.00;;;12.80;98.00;;;;;;5052922;28;20554;-69
2021/10/06 02:45:35;;;;;;;1.20;1.00;;;12.80;98.00;;;;;;5052732;28;20517;-69
2021/10/06 02:48:04;;;;;;;1.20;0.90;;;12.80;98.00;;;;;;5052652;28;20511;-69
2021/10/06 02:50:31;;;;;;;1.20;1.00;;;12.80;98.00;;;;;;5052545;28;20871;-69
2021/10/06 02:52:58;;;;;;;1.67;1.10;;;12.70;98.00;;;;;;5052278;28;20511;-69
2021/10/06 02:55:25;;;;;;;1.20;1.00;;;12.80;98.00;;;;;;5052475;28;20508;-69
2021/10/06 02:57:53;;;;;;;1.20;1.00;;;12.70;98.00;;;;;;5052237;28;20460;-70
2021/10/06 03:00:20;;;;;;;1.50;1.00;;;12.70;98.00;;;;;;5052026;28;20456;-69
2021/10/06 03:02:47;;;;;;;2.03;1.23;;;12.70;98.00;;;;;;5052060;28;20523;-70
2021/10/06 03:05:15;;;;;;;1.20;1.00;;;12.70;98.00;;;;;;5052114;28;20480;-69
2021/10/06 03:07:43;;;;;;;1.20;1.20;;;12.80;98.00;;;;;;5052172;28;20525;-69
2021/10/06 03:10:12;;;;;;;1.20;1.10;;;12.70;98.00;;;;;;5051941;28;20494;-70
2021/10/06 03:12:39;;;;;;;1.20;1.10;;;12.70;98.00;;;;;;5052020;28;20576;-70
2021/10/06 03:15:08;;;;;;;1.20;1.00;;;12.70;98.00;;;;;;5052062;28;20506;-70
2021/10/06 03:17:35;;;;;;;1.20;1.00;;;12.50;98.00;;;;;;5051611;28;20498;-69
2021/10/06 03:20:03;;;;;;;1.20;1.10;;;12.50;98.00;;;;;;5051840;28;20457;-68
2021/10/06 03:22:31;;;;;;;1.30;1.20;;;12.50;98.00;;;;;;5051895;28;20483;-68
2021/10/06 03:24:58;;;;;;;1.20;1.00;;;12.40;98.00;;;;;;5051437;28;20874;-69
2021/10/06 03:27:26;;;;;;;1.20;1.00;;;12.40;98.00;;;;;;5034223;28;20539;-69
2021/10/06 03:29:55;;;;;;;1.20;1.00;;;12.50;98.00;;;;;;5051658;28;20880;-69
2021/10/06 03:32:22;;;;;;;1.20;1.10;;;12.50;98.00;;;;;;5050165;28;20475;-69
2021/10/06 03:34:49;;;;;;;1.20;0.97;;;12.40;98.00;;;;;;5051806;28;20486;-68
2021/10/06 03:37:16;;;;;;;1.20;1.10;;;12.40;98.00;;;;;;5051600;28;20493;-68
2021/10/06 03:39:45;;;;;;;2.27;1.43;;;12.40;98.00;;;;;;5051662;28;20477;-70
2021/10/06 03:42:12;;;;;;;1.20;1.00;;;12.50;98.00;;;;;;5051633;28;20498;-69
2021/10/06 03:44:39;;;;;;;1.20;1.00;;;12.50;98.00;;;;;;5051320;28;20829;-69
2021/10/06 03:47:06;;;;;;;1.20;1.00;;;12.50;98.00;;;;;;5051450;28;20522;-69
2021/10/06 03:49:34;;;;;;;1.30;1.00;;;12.50;98.00;;;;;;5051579;28;20509;-68
2021/10/06 03:52:01;;;;;;;1.20;1.00;;;12.50;98.00;;;;;;5051517;28;20884;-69
2021/10/06 03:54:29;;;;;;;1.20;1.00;;;12.50;98.00;;;;;;5051537;28;20553;-69
2021/10/06 03:57:00;;;;;;;1.20;1.17;;;12.60;98.00;;;;;;5051610;28;20937;-69
2021/10/06 03:59:27;;;;;;;1.20;1.00;;;12.60;98.00;;;;;;5051369;28;20555;-69
2021/10/06 04:01:54;;;;;;;1.60;1.10;;;12.60;98.00;;;;;;5051621;28;20459;-70
2021/10/06 04:04:21;;;;;;;1.20;1.00;;;12.70;98.00;;;;;;5051761;28;20454;-69
2021/10/06 04:06:48;;;;;;;1.20;1.00;;;12.70;98.00;;;;;;5051544;28;20580;-70
2021/10/06 04:09:16;;;;;;;1.20;1.00;;;12.70;98.00;;;;;;5051226;28;20513;-69
2021/10/06 04:11:43;;;;;;;1.20;1.00;;;12.50;98.00;;;;;;5051604;28;20455;-69
2021/10/06 04:14:12;;;;;;;1.20;1.20;;;12.50;98.00;;;;;;5033723;28;20494;-69
2021/10/06 04:16:39;;;;;;;1.30;1.20;;;12.60;98.00;;;;;;5051146;28;20544;-69
2021/10/06 04:19:06;;;;;;;1.20;1.10;;;12.50;98.00;;;;;;5051569;28;20519;-69
2021/10/06 04:21:33;;;;;;;1.30;1.03;;;12.60;98.00;;;;;;5051107;28;20459;-69
2021/10/06 04:24:00;;;;;;;1.20;1.00;;;12.60;98.00;;;;;;5051145;28;20456;-69
2021/10/06 04:26:28;;;;;;;1.20;1.00;;;12.60;98.00;;;;;;5032929;28;20474;-69
2021/10/06 04:28:56;;;;;;;1.20;1.03;;;12.50;98.00;;;;;;5051285;28;20483;-70
2021/10/06 04:31:25;;;;;;;1.20;1.00;;;12.40;98.00;;;;;;5050828;28;20487;-69
2021/10/06 04:33:52;;;;;;;1.20;1.00;;;12.50;98.00;;;;;;5051040;28;20550;-69
2021/10/06 04:36:19;;;;;;;1.20;1.10;;;12.40;98.00;;;;;;5050865;28;20460;-70
2021/10/06 04:38:46;;;;;;;1.20;0.90;;;12.40;98.00;;;;;;5051047;28;20823;-70
2021/10/06 04:41:13;;;;;;;1.20;1.00;;;12.40;98.00;;;;;;5054300;28;20988;-68
2021/10/06 04:43:41;;;;;;;1.20;1.00;;;12.40;98.00;;;;;;5054418;28;20459;-70
2021/10/06 04:46:08;;;;;;;1.20;1.00;;;12.60;98.00;;;;;;5054729;28;20485;-70
2021/10/06 04:48:37;;;;;;;1.20;1.00;;;12.60;98.00;;;;;;5054862;28;20459;-69
2021/10/06 04:51:04;;;;;;;1.20;1.10;;;12.70;98.00;;;;;;5054711;28;20461;-69
2021/10/06 04:53:31;;;;;;;1.20;1.00;;;12.60;98.00;;;;;;5054834;28;20516;-69
2021/10/06 04:55:58;;;;;;;1.20;1.00;;;12.60;98.00;;;;;;5054579;28;20462;-69
2021/10/06 04:58:25;;;;;;;1.20;1.00;;;12.60;98.00;;;;;;5054444;28;20845;-68
2021/10/06 05:00:52;;;;;;;1.20;1.10;;;12.60;98.00;;;;;;5054494;28;20460;-68
2021/10/06 05:03:20;;;;;;;1.20;1.00;;;12.60;98.00;;;;;;5054636;28;20473;-69
2021/10/06 05:05:49;;;;;;;1.77;1.20;;;12.60;98.00;;;;;;5054536;28;21027;-69
2021/10/06 05:08:18;;;;;;;1.20;1.00;;;12.60;98.00;;;;;;5054292;28;20829;-68
2021/10/06 05:10:45;;;;;;;1.20;1.00;;;12.60;98.00;;;;;;5036640;28;20798;-68
2021/10/06 05:13:12;;;;;;;1.70;1.10;;;12.70;98.00;;;;;;5054399;28;20513;-69
2021/10/06 05:15:39;;;;;;;1.40;1.20;;;12.70;98.00;;;;;;5054406;28;20458;-69
2021/10/06 05:18:06;;;;;;;1.20;1.00;;;12.60;98.00;;;;;;5054301;28;20520;-69
2021/10/06 05:20:33;;;;;;;1.20;1.00;;;12.70;98.00;;;;;;5054324;28;20818;-68
2021/10/06 05:23:02;;;;;;;1.40;1.10;;;12.70;98.00;;;;;;5054139;28;20461;-71
2021/10/06 05:25:32;;;;;;;1.30;1.10;;;12.70;98.00;;;;;;5054134;28;20466;-69
2021/10/06 05:27:59;;;;;;;1.20;1.00;;;12.60;98.00;;;;;;5052713;28;20526;-70
2021/10/06 05:30:26;;;;;;;1.20;1.00;;;12.50;98.00;;;;;;5053973;28;20468;-70
2021/10/06 05:32:53;;;;;;;1.20;1.00;;;12.50;98.00;;;;;;5054256;28;20805;-69
2021/10/06 05:35:21;;;;;;;1.20;1.07;;;12.50;98.00;;;;;;5054005;28;20520;-69
2021/10/06 05:37:48;;;;;;;1.20;1.00;;;12.50;98.00;;;;;;5054097;28;20513;-68
2021/10/06 05:40:17;;;;;;;1.20;1.00;;;12.50;98.00;;;;;;5053949;28;20961;-70
2021/10/06 05:42:45;;;;;;;1.20;1.00;;;12.50;98.00;;;;;;5053942;28;20457;-69
2021/10/06 05:45:12;;;;;;;1.20;1.00;;;12.40;98.00;;;;;;5053599;28;20896;-69
2021/10/06 05:47:39;;;;;;;1.20;1.07;;;12.40;98.00;;;;;;5053622;28;20561;-69
2021/10/06 05:50:08;;;;;;;2.03;1.43;;;12.40;98.00;;;;;;5035261;28;20608;-70
2021/10/06 05:52:35;;;;;;;1.20;1.00;;;12.40;98.00;;;;;;5053505;28;20463;-69
2021/10/06 05:55:04;;;;;;;1.20;1.00;;;12.40;98.00;;;;;;5053680;28;20504;-71
2021/10/06 05:57:33;;;;;;;1.20;1.00;;;12.50;98.00;;;;;;5053464;28;20582;-70
2021/10/06 06:00:00;;;;;;;1.20;1.00;;;12.50;98.00;;;;;;5053368;28;20559;-70
2021/10/06 06:02:27;;;;;;;1.20;1.00;;;12.40;98.00;;;;;;5053429;28;20464;-71
2021/10/06 06:04:54;;;;;;;1.20;0.97;;;12.40;98.00;;;;;;5053209;28;20968;-69
2021/10/06 06:07:21;;;;;;;1.20;1.00;;;12.40;98.00;;;;;;5053144;28;20524;-70
2021/10/06 06:09:48;;;;;;;1.20;1.00;;;12.50;98.00;;;;;;5053428;28;20478;-68
2021/10/06 06:12:15;;;;;;;1.30;1.10;;;12.50;98.00;;;;;;5053187;28;20461;-68
2021/10/06 06:14:46;;;;;;;1.20;1.00;;;12.50;98.00;;;;;;5053294;28;20458;-68
2021/10/06 06:17:13;;;;;;;1.20;1.00;;;12.50;98.00;;;;;;5052883;28;20866;-70
2021/10/06 06:19:40;;;;;;;1.20;1.00;;;12.50;98.00;;;;;;5052824;28;20524;-70
2021/10/06 06:22:07;;;;;;;1.47;1.10;;;12.50;98.00;;;;;;5052881;28;20459;-69
2021/10/06 06:24:38;;;;;;;1.20;1.00;;;12.50;98.00;;;;;;5053169;28;20491;-71
2021/10/06 06:27:07;;;;;;;1.20;1.00;;;12.50;98.00;;;;;;5053096;28;21066;-70
2021/10/06 06:29:36;;;;;;;1.20;1.00;;;12.50;98.00;;;;;;5053031;28;20468;-70
2021/10/06 06:32:05;;;;;;;1.60;1.10;;;12.60;98.00;;;;;;5053049;28;20981;-69
2021/10/06 06:34:32;;;;;;;1.20;1.10;;;12.60;98.00;;;;;;5052765;28;20922;-69
2021/10/06 06:37:00;;;;;;;1.20;1.00;;;12.50;98.00;;;;;;5052668;28;20489;-69
2021/10/06 06:39:27;;;;;;;1.20;1.00;;;12.70;98.00;;;;;;5052837;28;20529;-69
2021/10/06 06:41:54;;;;;;;1.20;1.00;;;13.10;98.00;;;;;;5052894;28;20515;-69
2021/10/06 06:44:21;;;;;;;1.77;1.10;;;13.90;98.00;;;;;;5052788;28;20461;-69
2021/10/06 06:46:48;;;;;;;1.20;1.20;;;14.50;98.00;;;;;;5055698;28;20555;-70
2021/10/06 06:49:17;;;;;;;1.20;1.03;;;14.60;98.00;;;;;;5059798;28;20495;-70
2021/10/06 06:51:45;;;;;;;1.20;1.20;;;14.60;98.00;;;;;;5056080;28;20458;-69
2021/10/06 06:54:12;;;;;;;1.30;1.20;;;14.40;98.00;;;;;;5055884;28;20515;-69
2021/10/06 06:56:39;;;;;;;1.20;1.00;;;14.20;98.00;;;;;;5056587;28;20509;-69
2021/10/06 06:59:08;;;;;;;1.20;1.00;;;13.80;98.00;;;;;;5063505;28;20496;-70
2021/10/06 07:01:36;;;;;;;1.20;1.10;;;13.70;98.00;;;;;;5064644;28;20508;-71
2021/10/06 07:04:04;;;;;;;1.20;1.03;;;13.60;98.00;;;;;;5054390;28;20535;-70
2021/10/06 07:06:34;;;;;;;1.30;1.10;;;13.50;98.00;;;;;;5058748;28;20535;-68
2021/10/06 07:09:03;;;;;;;1.20;1.00;;;13.40;98.00;;;;;;5055398;28;20462;-68
2021/10/06 07:11:30;;;;;;;1.60;1.10;;;13.30;98.00;;;;;;5063351;28;20518;-68
2021/10/06 07:13:59;;;;;;;1.20;1.10;;;13.20;98.00;;;;;;5054874;28;20520;-69
2021/10/06 07:16:26;;;;;;;1.20;1.10;;;13.30;98.00;;;;;;5064314;28;20488;-69
2021/10/06 07:18:54;;;;;;;1.20;1.10;;;13.40;98.00;;;;;;5058306;28;20457;-69
2021/10/06 07:21:21;;;;;;;1.20;1.00;;;13.40;98.00;;;;;;5063166;28;20460;-68
2021/10/06 07:23:51;;;;;;;1.20;1.00;;;13.40;98.00;;;;;;5051551;28;20462;-69
2021/10/06 07:26:18;;;;;;;1.20;1.10;;;13.50;98.00;;;;;;5055009;28;20462;-69
2021/10/06 07:28:47;;;;;;;1.20;1.00;;;13.50;98.00;;;;;;5064544;28;20527;-69
2021/10/06 07:31:15;;;;;;;1.20;1.00;;;13.40;98.00;;;;;;5050926;28;20469;-69
2021/10/06 07:33:42;;;;;;;1.20;0.90;;;13.40;98.00;;;;;;5054710;28;20557;-69
2021/10/06 07:36:09;;;;;;;1.20;1.00;;;13.40;98.00;;;;;;5058924;28;20856;-69
2021/10/06 07:38:36;;;;;;;1.20;1.00;;;13.40;98.00;;;;;;5067340;28;20517;-69
2021/10/06 07:41:05;;;;;;;1.20;1.10;;;13.40;98.00;;;;;;5054810;28;20526;-71
2021/10/06 07:43:33;;;;;;;1.20;1.03;;;13.40;98.00;;;;;;5050642;28;20460;-68
2021/10/06 07:46:00;;;;;;;1.20;1.10;;;13.40;98.00;;;;;;5051386;28;20533;-69
2021/10/06 07:48:27;;;;;;;1.20;1.00;;;13.50;98.00;;;;;;5051600;28;21063;-69
2021/10/06 07:50:54;;;;;;;1.20;1.10;;;13.50;98.00;;;;;;5033706;28;20472;-68
2021/10/06 07:53:21;;;;;;;1.20;1.03;;;13.50;98.00;;;;;;5051629;28;20518;-68
2021/10/06 07:55:48;;;;;;;1.20;1.00;;;13.50;98.00;;;;;;5051730;28;20454;-69
2021/10/06 07:58:21;;;;;;;1.20;1.10;;;13.50;98.00;;;;;;5051734;28;20810;-68
2021/10/06 08:00:48;;;;;;;3.50;1.10;;;13.40;98.00;;;;;;5034257;28;20510;-68
2021/10/06 08:03:15;;;;;;;1.20;1.00;;;13.50;98.00;;;;;;5051504;28;20467;-69
2021/10/06 08:05:42;;;;;;;1.30;1.23;;;13.50;98.00;;;;;;5033902;28;20461;-68
2021/10/06 08:08:09;;;;;;;1.20;1.10;;;13.60;98.00;;;;;;5051440;28;20484;-68
2021/10/06 08:10:36;;;;;;;1.20;1.10;;;13.60;98.00;;;;;;5051843;28;20545;-68
2021/10/06 08:13:04;;;;;;;1.20;0.93;;;13.80;98.00;;;;;;5051572;28;20522;-68
2021/10/06 08:15:34;;;;;;;1.20;1.00;;;14.00;98.00;;;;;;5055338;28;20541;-68
2021/10/06 08:18:01;;;;;;;1.20;1.10;;;14.10;98.00;;;;;;5055460;28;20464;-69
2021/10/06 08:20:32;;;;;;;1.20;1.00;;;14.30;98.00;;;;;;5055272;28;20531;-69
2021/10/06 08:23:01;;;;;;;1.20;1.00;;;14.20;98.00;;;;;;5055463;28;20453;-68
2021/10/06 08:25:28;;;;;;;1.20;1.00;;;14.30;98.00;;;;;;5055249;28;20469;-69
2021/10/06 08:27:55;;;;;;;1.20;1.00;;;14.40;98.00;;;;;;5037471;28;20483;-68
2021/10/06 08:30:23;;;;;;;1.20;1.03;;;14.40;98.00;;;;;;5055048;28;20487;-67
2021/10/06 08:32:52;;;;;;;1.20;1.10;;;14.40;98.00;;;;;;5055352;28;20459;-68
2021/10/06 08:35:20;;;;;;;1.50;1.20;;;14.50;98.00;;;;;;5054942;28;20492;-68
2021/10/06 08:37:47;;;;;;;1.60;1.20;;;14.40;98.00;;;;;;5054987;28;20454;-68
2021/10/06 08:40:14;;;;;;;1.20;1.10;;;14.40;98.00;;;;;;5055010;28;20462;-68
2021/10/06 08:42:42;;;;;;;1.40;1.30;;;14.30;98.00;;;;;;5054846;28;20459;-69
2021/10/06 08:45:10;;;;;;;1.20;1.10;;;14.30;98.00;;;;;;5054329;28;20940;-67
2021/10/06 08:47:42;;;;;;;1.20;1.00;;;14.40;98.00;;;;;;5054688;28;20486;-68
2021/10/06 08:50:12;;;;;;;1.20;1.10;;;14.30;98.00;;;;;;5054814;28;20464;-68
2021/10/06 08:52:40;;;;;;;1.20;1.10;;;14.40;98.00;;;;;;5054631;28;20512;-69
2021/10/06 08:55:10;;;;;;;1.20;1.00;;;14.50;98.00;;;;;;5055021;28;20460;-68
2021/10/06 08:57:37;;;;;;;1.20;1.00;;;14.60;98.00;;;;;;5054549;28;20661;-68
2021/10/06 09:00:05;;;;;;;1.20;1.00;;;14.50;98.00;;;;;;5054595;28;20547;-68
2021/10/06 09:02:38;;;;;;;1.20;1.00;;;14.50;98.00;;;;;;5054585;28;20458;-68
2021/10/06 09:05:06;;;;;;;1.30;1.00;;;14.50;98.00;;;;;;5054338;28;20487;-69
2021/10/06 09:07:54;;;;;;;1.20;1.10;;;14.50;98.00;;;;;;5053900;28;20567;-68
2021/10/06 09:10:22;;;;;;;1.20;1.10;;;14.50;98.00;;;;;;5054281;28;20539;-68
2021/10/06 09:12:58;;;;;;;1.20;1.07;;;14.40;98.00;;;;;;5036776;28;20919;-68
2021/10/06 09:15:27;;;;;;;1.20;1.10;;;14.30;98.00;;;;;;5054381;28;20958;-68
2021/10/06 09:17:57;;;;;;;1.70;1.30;;;14.20;98.00;;;;;;5054366;28;20453;-68
2021/10/06 09:20:35;;;;;;;1.20;1.00;;;14.10;98.00;;;;;;5054340;28;20455;-69
2021/10/06 09:23:06;;;;;;;1.20;1.00;;;14.10;98.00;;;;;;5053973;28;20560;-69
2021/10/06 09:25:47;;;;;;;1.20;1.00;;;14.00;98.00;;;;;;5052280;28;20523;-70
2021/10/06 09:28:23;;;;;;;1.20;1.00;;;13.90;98.00;;;;;;5061165;28;20501;-69
2021/10/06 09:30:58;;;;;;;1.20;1.00;;;14.00;98.00;;;;;;5047152;28;20452;-70
2021/10/06 09:33:36;;;;;;;1.20;1.00;;;13.80;98.00;;;;;;5053188;28;21093;-68
2021/10/06 09:36:10;;;;;;;1.20;1.10;;;13.60;98.00;;;;;;5053028;28;20457;-67
2021/10/06 09:38:53;;;;;;;1.20;1.20;;;13.60;98.00;;;;;;5066240;28;20950;-67
2021/10/06 09:41:36;;;;;;;1.30;1.00;;;13.90;98.00;;;;;;5061342;28;20462;-68
2021/10/06 09:44:07;;;;;;;1.20;1.10;;;14.00;98.00;;;;;;5052789;28;20462;-70
2021/10/06 09:46:45;;;;;;;1.20;1.10;;;14.30;98.00;;;;;;5060783;28;20522;-69
2021/10/06 09:49:27;;;;;;;1.50;1.07;;;14.10;98.00;;;;;;5043466;28;20583;-70
2021/10/06 09:51:56;;;;;;;1.77;1.30;;;14.20;98.00;;;;;;5047782;28;20473;-69
2021/10/06 09:54:25;;;;;;;1.20;1.00;;;14.50;98.00;;;;;;5069162;28;21746;-71
2021/10/06 09:56:52;;;;;;;1.20;1.10;;;14.90;98.00;;;;;;5058314;28;20473;-66
2021/10/06 09:59:19;;;;;;;1.60;1.13;;;14.90;98.00;;;;;;5052413;28;20960;-66
2021/10/06 10:01:48;;;;;;;1.20;1.10;;;14.90;98.00;;;;;;5052607;28;20488;-68
2021/10/06 10:04:15;;;;;;;1.20;1.10;;;14.90;98.00;;;;;;5052663;28;20470;-66
2021/10/06 10:06:42;;;;;;;2.23;1.20;;;15.20;98.00;;;;;;5051998;28;20466;-66
2021/10/06 10:09:13;;;;;;;1.20;1.10;;;15.40;98.00;;;;;;5060660;28;21024;-66
2021/10/06 10:11:42;;;;;;;1.20;1.00;;;15.40;98.00;;;;;;5054650;28;20459;-67
2021/10/06 10:14:09;;;;;;;1.20;1.10;;;15.50;98.00;;;;;;5058678;28;20507;-66
2021/10/06 10:16:39;;;;;;;1.20;1.00;;;15.50;98.00;;;;;;5062942;28;20467;-67
2021/10/06 10:19:09;;;;;;;1.20;1.00;;;15.50;98.00;;;;;;5067135;28;20462;-67
2021/10/06 10:21:39;;;;;;;1.20;1.10;;;15.50;98.00;;;;;;5055069;28;20497;-66
2021/10/06 10:24:12;;;;;;;1.43;1.10;;;15.60;98.00;;;;;;5060659;28;20488;-66
2021/10/06 10:26:54;;;;;;;1.20;1.00;;;15.70;98.00;;;;;;5059852;28;20798;-66
2021/10/06 10:29:43;;;;;;;1.30;1.00;;;15.90;98.00;;;;;;5052040;28;20494;-66
2021/10/06 10:32:12;;;;;;;1.20;1.10;;;16.20;98.00;;;;;;5068088;28;20455;-67
2021/10/06 10:34:59;;;;;;;1.20;1.10;;;16.40;98.00;;;;;;5051823;28;20491;-67
2021/10/06 10:38:16;;;;;;;1.20;1.00;;;16.50;98.00;;;;;;5042224;28;20460;-67
2021/10/06 10:40:50;;;;;;;1.83;1.50;;;16.50;98.00;;;;;;5061848;28;20553;-67
2021/10/06 10:43:19;;;;;;;1.20;1.00;;;16.40;98.00;;;;;;5060477;28;20498;-67
2021/10/06 10:46:06;;;;;;;1.20;1.10;;;16.00;98.00;;;;;;5059388;28;20454;-67
2021/10/06 10:48:41;;;;;;;1.20;1.00;;;15.90;98.00;;;;;;5049857;28;20491;-66
2021/10/06 10:51:11;;;;;;;1.63;1.10;;;15.50;98.00;;;;;;5051508;28;20977;-66
2021/10/06 10:54:00;;;;;;;1.20;1.00;;;15.10;98.00;;;;;;5059395;28;20499;-66
2021/10/06 10:56:58;;;;;;;1.20;1.00;;;14.20;98.00;;;;;;5067886;28;20456;-66
2021/10/06 10:59:29;;;;;;;1.20;1.17;;;13.50;98.00;;;;;;4970773;28;20486;-68
2021/10/06 11:01:59;;;;;;;2.90;1.27;;;13.40;98.00;;;;;;5034904;28;20877;-66
2021/10/06 11:04:28;;;;;;;1.20;1.10;;;13.10;98.00;;;;;;5060136;28;20481;-67
2021/10/06 11:06:57;;;;;;;1.20;1.00;;;13.20;98.00;;;;;;5042529;28;20464;-67
2021/10/06 11:09:44;;;;;;;1.20;1.00;;;13.20;98.00;;;;;;5067113;28;20519;-67
2021/10/06 11:12:45;;;;;;;1.50;1.30;;;13.10;98.00;;;;;;5054674;28;20462;-67
2021/10/06 11:15:32;;;;;;;1.20;1.00;;;13.20;98.00;;;;;;5067222;28;20463;-66
2021/10/06 11:18:41;;;;;;;1.20;0.90;;;13.40;98.00;;;;;;5058895;28;20461;-67
2021/10/06 11:21:10;;;;;;;1.30;1.10;;;13.60;98.00;;;;;;5055699;28;20469;-67
2021/10/06 11:23:49;;;;;;;1.20;1.00;;;13.60;98.00;;;;;;5055315;28;20457;-66
2021/10/06 11:26:19;;;;;;;1.20;1.00;;;13.50;98.00;;;;;;5056155;28;20475;-66
2021/10/06 11:28:47;;;;;;;1.20;1.03;;;13.60;98.00;;;;;;5066649;28;20580;-66
2021/10/06 11:31:16;;;;;;;1.20;0.97;;;13.70;98.00;;;;;;5058614;28;20485;-66
2021/10/06 11:33:44;;;;;;;2.70;1.20;;;14.00;98.00;;;;;;5067739;28;20456;-66
2021/10/06 11:36:15;;;;;;;1.20;1.00;;;14.00;98.00;;;;;;5067102;28;20477;-66
2021/10/06 11:38:44;;;;;;;1.50;1.10;;;14.00;98.00;;;;;;5067278;28;21008;-67
2021/10/06 11:41:13;;;;;;;1.20;1.10;;;14.00;98.00;;;;;;5067085;28;20501;-66
2021/10/06 11:43:46;;;;;;;2.40;1.20;;;14.10;98.00;;;;;;5057884;28;20495;-66
2021/10/06 11:46:20;;;;;;;1.20;1.10;;;14.10;98.00;;;;;;5051769;28;20464;-66
2021/10/06 11:48:56;;;;;;;1.20;1.10;;;13.90;98.00;;;;;;5057133;28;20494;-67
2021/10/06 11:51:39;;;;;;;1.20;1.03;;;13.80;98.00;;;;;;5049256;28;20451;-68
2021/10/06 11:54:06;;;;;;;1.20;1.00;;;13.90;98.00;;;;;;5057891;28;20469;-67
2021/10/06 11:56:33;;;;;;;1.30;1.30;;;13.70;98.00;;;;;;5050008;28;20488;-66
2021/10/06 11:59:12;;;;;;;1.20;1.00;;;13.70;98.00;;;;;;5059516;28;20554;-67
2021/10/06 12:01:41;;;;;;;1.20;1.00;;;13.90;98.00;;;;;;5058293;28;20557;-66
2021/10/06 12:04:14;;;;;;;1.20;1.00;;;13.90;98.00;;;;;;5064384;28;20531;-66
2021/10/06 12:06:46;;;;;;;2.07;1.03;;;14.30;98.00;;;;;;5062520;28;21101;-70
2021/10/06 12:09:15;;;;;;;1.20;1.07;;;14.50;98.00;;;;;;5055192;28;20489;-69
2021/10/06 12:11:44;;;;;;;1.20;1.10;;;14.60;98.00;;;;;;5054931;28;20465;-69
2021/10/06 12:14:22;;;;;;;1.20;1.00;;;14.70;98.00;;;;;;5059037;28;20461;-69
2021/10/06 12:17:02;;;;;;;1.30;1.10;;;14.80;98.00;;;;;;5066409;28;20515;-69
2021/10/06 12:19:30;;;;;;;1.20;1.00;;;14.80;98.00;;;;;;5066587;28;20884;-68
2021/10/06 12:21:58;;;;;;;1.20;1.00;;;14.80;98.00;;;;;;5066687;28;20811;-68
2021/10/06 12:24:28;;;;;;;1.20;1.00;;;14.80;98.00;;;;;;5066598;28;20605;-68
2021/10/06 12:26:57;;;;;;;1.20;1.00;;;14.60;98.00;;;;;;5038668;28;20521;-68
2021/10/06 12:29:26;;;;;;;1.20;1.00;;;14.50;98.00;;;;;;5049394;28;20521;-68
2021/10/06 12:31:56;;;;;;;1.20;1.07;;;14.70;98.00;;;;;;5066296;28;20456;-68
2021/10/06 12:34:26;;;;;;;1.20;1.00;;;15.00;98.00;;;;;;5051092;28;20832;-68
2021/10/06 12:36:56;;;;;;;1.20;1.10;;;15.40;98.00;;;;;;5056710;28;20463;-69
2021/10/06 12:39:25;;;;;;;1.20;1.20;;;15.50;98.00;;;;;;5050640;28;20907;-69
2021/10/06 12:41:54;;;;;;;1.30;1.07;;;15.50;98.00;;;;;;5057792;28;20453;-70
2021/10/06 12:44:28;;;;;;;1.20;1.10;;;15.30;98.00;;;;;;5058636;28;20454;-70
2021/10/06 12:46:58;;;;;;;1.20;1.00;;;15.10;98.00;;;;;;5066817;28;20541;-70
2021/10/06 12:49:30;;;;;;;1.30;1.00;;;14.90;98.00;;;;;;5049303;28;21035;-70
2021/10/06 12:52:04;;;;;;;1.20;1.10;;;14.70;98.00;;;;;;5050017;28;20467;-70
2021/10/06 12:54:32;;;;;;;1.20;1.00;;;14.60;98.00;;;;;;5033063;28;20498;-70
2021/10/06 12:57:01;;;;;;;1.20;1.00;;;14.50;98.00;;;;;;5057347;28;20473;-68
2021/10/06 12:59:37;;;;;;;2.27;1.83;;;14.50;98.00;;;;;;5066684;28;20539;-68